Baltic, Connecticut
Current Conditions -  °F | °C
As of 10:52 AM on Saturday 25 Oct 2014 (Local Time) from KIJD Reporting Station
Few Clouds Few Clouds  
Wind Chill: 57°   Ceiling: Unl
Heat Index: 57°   Visibility: 10mi
Dew Point: 41°   Wind: 9mph
Humidity: 55%   Direction: 290°WNW
Pressure: 29.78"   Gusts: NA
Location:  41.62°N, 72.08°W
Report Text: KIJD 251452Z AUTO 29008KT 260V330 10SM FEW090 14/05 A2978 RMK AO2 SLP083 T01390050 58011
Loading
Personal Weather Stations






























Interactive Weather Map
Tropical Storm Tracking
New forecast layout! Learn more

10-Day Weather Forecast

Advertisements
Track Severe Weather on mobile